A- A+ FrançaisEnglishEspañol中国

Services sur Internet Soldes sur Internet Des idées de cadeaux Météo Météo aéro

La météo à : Autours de vous Tarbes-Lourdes-PyrénéesToussus-Le-NobleMarseille Ajaccio-Napoléon-Bonaparte

La météo aéronautique pour les pilotes, la préparation du vol avec les METAR (METeorological Aerodrome Report, message d'observation des conditions météorologiques pour l'aviation) et Les TAF (Terminal Aerodrome Forecast : message de prévision à court terme des conditions météorologiques pour l'aviation). Et les autres ressources comme les VAC (Visual Approch Chart) et les NOTAM (Notice To Airman) pour préprer les vols.

Aéroport Cardiff (Royaume-Uni) / OACI EGFF/ IATA CWL

L'altitude de l'aéroport Cardiff est de 67 m = 220 ft. Il est situé à proximité de Cardiff (Royaume-Uni). La météo générale à 5 jours est disponible pour Vale of Glamorgan situé à 5.6 km.

METAR de l'aéroport Cardiff - EGFF

EGFF 080720Z AUTO 27020G32KT 9999 BKN031 10/05 Q1001

Décodage du METAR de l'aéroport Cardiff (GB)

METAR émis par EGFF le dimanche 8 décembre 2019 à 07:20 heure TU. C'est un METAR généré automatiquement, il y a 13 minutes.

La visibilité est de supérieure à 10 km = supérieure à 6.2 sm.

La température est de 10°C = 50 °F et le point rosée est de 5°C = 41 °F . Ce qui correspond à 71% d'humidité relative.

Le QNH est de 1001 hPa = 29.56 inHg

Vent de 20 kt = 37 km/h avec des rafales à 32 kt = 59 km/h, orienté à 270°.

Nuages : Couverture nuageuse fragmentée à 3100 ft = 940 mètres.

TAF de l'aéroport Cardiff - EGFF

EGFF 080453Z 0806/0906 27022G36KT 9999 FEW012 SCT025 TEMPO 0806/0903 6000 SHRA PROB30 TEMPO 0812/0903 4000 +SHRA BKN012 BKN020CB TEMPO 0821/0903 27028G46KT BECMG 0903/0906 31018KT

EGFF 080453Z 0806/0906 27022G36KT 9999 quelques nuages à 012 nuages épars à 025 temporairement 0806/0903 6000 SHRA probabilité de 30% d'avoir temporairement 0812/0903 4000 forte SHRA couverture nuageuse fragmentée à 012 couverture nuageuse fragmentée à 020CB temporairement 0821/0903 27028G46KT devenant 0903/0906 31018KT

Aéroport à proximité de Cardiff

Météo générale à 5 jours à Vale of Glamorgan (5.6 km)Aéroport St. Athan (6 km)Aéroport Bristol Lulsgate (43 km)Aéroport Swansea (55 km)Aéroport Merryfield (56 km)Aéroport Dunkeswell (60 km)Aéroport Yeovilton (65 km)

VAC de l'aéroport Cardiff - EGFF

La carte d'approche à vue (VAC Visual Approah Chart) est fournie sans aucune garantie de son actualité. Le pilote est le seul responsable de la vérification de sa validité avant de l'utiliser opérationnellement pour préparer un vol ou l'utiliser lors de sa navigation.

VAC de EGFF

Vue aérienne de l'aéroport Cardiff

NOTAM de l'aéroport Cardiff

Les NOTAM sont fournis sans aucune garantie de leur actualité. Le pilote est le seul responsable de la vérification de sa validité avant de l'utiliser opérationnellement pour préparer un vol ou l'utiliser lors de sa navigation.

Pas de NOTAM

Sources des données